sensor_id;sensor_type;location;lat;lon;timestamp;pressure;altitude;pressure_sealevel;temperature;humidity
42289;BME280;30230;47.520;19.016;2023-05-12T00:00:24;99132.69;;;11.58;100.00
42289;BME280;30230;47.520;19.016;2023-05-12T00:02:25;99125.22;;;11.47;100.00
42289;BME280;30230;47.520;19.016;2023-05-12T00:04:26;99126.06;;;11.47;100.00
42289;BME280;30230;47.520;19.016;2023-05-12T00:06:26;99124.00;;;11.43;100.00
42289;BME280;30230;47.520;19.016;2023-05-12T00:08:26;99121.06;;;11.44;100.00
42289;BME280;30230;47.520;19.016;2023-05-12T00:10:27;99128.13;;;11.45;100.00
42289;BME280;30230;47.520;19.016;2023-05-12T00:12:27;99128.56;;;11.49;100.00
42289;BME280;30230;47.520;19.016;2023-05-12T00:14:28;99125.22;;;11.54;100.00
42289;BME280;30230;47.520;19.016;2023-05-12T00:16:28;99129.31;;;11.63;100.00
42289;BME280;30230;47.520;19.016;2023-05-12T00:18:29;99131.00;;;11.57;100.00
42289;BME280;30230;47.520;19.016;2023-05-12T00:20:29;99126.41;;;11.58;100.00
42289;BME280;30230;47.520;19.016;2023-05-12T00:22:30;99127.28;;;11.58;100.00
42289;BME280;30230;47.520;19.016;2023-05-12T00:24:30;99122.69;;;11.52;100.00
42289;BME280;30230;47.520;19.016;2023-05-12T00:26:31;99099.06;;;11.34;100.00
42289;BME280;30230;47.520;19.016;2023-05-12T00:28:31;99117.47;;;11.57;100.00
42289;BME280;30230;47.520;19.016;2023-05-12T00:30:32;99120.00;;;11.52;100.00
42289;BME280;30230;47.520;19.016;2023-05-12T00:32:33;99121.88;;;11.52;100.00
42289;BME280;30230;47.520;19.016;2023-05-12T00:34:33;99107.53;;;11.51;100.00
42289;BME280;30230;47.520;19.016;2023-05-12T00:36:34;99119.38;;;11.50;100.00
42289;BME280;30230;47.520;19.016;2023-05-12T00:38:34;99113.16;;;11.50;100.00
42289;BME280;30230;47.520;19.016;2023-05-12T00:40:36;99105.72;;;11.38;100.00
42289;BME280;30230;47.520;19.016;2023-05-12T00:42:36;99107.31;;;11.46;100.00
42289;BME280;30230;47.520;19.016;2023-05-12T00:44:37;99110.66;;;11.48;100.00
42289;BME280;30230;47.520;19.016;2023-05-12T00:46:37;99113.38;;;11.41;100.00
42289;BME280;30230;47.520;19.016;2023-05-12T00:48:38;99105.91;;;11.37;100.00
42289;BME280;30230;47.520;19.016;2023-05-12T00:50:39;99107.31;;;11.46;100.00
42289;BME280;30230;47.520;19.016;2023-05-12T00:52:40;99098.16;;;11.47;100.00
42289;BME280;30230;47.520;19.016;2023-05-12T00:54:41;99110.88;;;11.53;100.00
42289;BME280;30230;47.520;19.016;2023-05-12T00:56:43;99100.69;;;11.48;100.00
42289;BME280;30230;47.520;19.016;2023-05-12T00:58:43;99112.53;;;11.54;100.00
42289;BME280;30230;47.520;19.016;2023-05-12T01:00:44;99107.31;;;11.53;100.00
42289;BME280;30230;47.520;19.016;2023-05-12T01:02:44;99103.75;;;11.52;100.00
42289;BME280;30230;47.520;19.016;2023-05-12T01:04:45;99109.59;;;11.56;100.00
42289;BME280;30230;47.520;19.016;2023-05-12T01:06:58;99103.75;;;11.52;100.00
42289;BME280;30230;47.520;19.016;2023-05-12T01:09:02;99106.88;;;11.56;100.00
42289;BME280;30230;47.520;19.016;2023-05-12T01:11:03;99103.16;;;11.50;100.00
42289;BME280;30230;47.520;19.016;2023-05-12T01:13:03;99091.97;;;11.40;100.00
42289;BME280;30230;47.520;19.016;2023-05-12T01:15:04;99110.03;;;11.46;100.00
42289;BME280;30230;47.520;19.016;2023-05-12T01:17:10;99104.44;;;11.41;100.00
42289;BME280;30230;47.520;19.016;2023-05-12T01:21:24;99109.41;;;11.51;100.00
42289;BME280;30230;47.520;19.016;2023-05-12T01:23:35;99111.69;;;11.47;100.00
42289;BME280;30230;47.520;19.016;2023-05-12T01:25:38;99104.22;;;11.49;100.00
42289;BME280;30230;47.520;19.016;2023-05-12T01:27:39;99105.84;;;11.57;100.00
42289;BME280;30230;47.520;19.016;2023-05-12T01:29:41;99109.78;;;11.61;100.00
42289;BME280;30230;47.520;19.016;2023-05-12T01:31:42;99100.91;;;11.40;100.00
42289;BME280;30230;47.520;19.016;2023-05-12T01:33:42;99111.75;;;11.34;100.00
42289;BME280;30230;47.520;19.016;2023-05-12T01:35:43;99108.19;;;11.40;100.00
42289;BME280;30230;47.520;19.016;2023-05-12T01:37:43;99111.50;;;11.42;100.00
42289;BME280;30230;47.520;19.016;2023-05-12T01:39:45;99109.84;;;11.41;100.00
42289;BME280;30230;47.520;19.016;2023-05-12T01:41:45;99108.59;;;11.43;100.00
42289;BME280;30230;47.520;19.016;2023-05-12T01:43:46;99109.84;;;11.41;100.00
42289;BME280;30230;47.520;19.016;2023-05-12T01:45:46;99109.00;;;11.40;100.00
42289;BME280;30230;47.520;19.016;2023-05-12T01:47:47;99111.53;;;11.35;100.00
42289;BME280;30230;47.520;19.016;2023-05-12T01:49:47;99117.34;;;11.39;100.00
42289;BME280;30230;47.520;19.016;2023-05-12T01:51:48;99116.94;;;11.35;100.00
42289;BME280;30230;47.520;19.016;2023-05-12T01:53:48;99115.50;;;11.33;100.00
42289;BME280;30230;47.520;19.016;2023-05-12T01:55:48;99113.19;;;11.36;100.00
42289;BME280;30230;47.520;19.016;2023-05-12T01:57:49;99119.84;;;11.40;100.00
42289;BME280;30230;47.520;19.016;2023-05-12T01:59:49;99122.75;;;11.39;100.00
42289;BME280;30230;47.520;19.016;2023-05-12T02:01:50;99129.00;;;11.39;100.00
42289;BME280;30230;47.520;19.016;2023-05-12T02:03:50;99124.41;;;11.40;100.00
42289;BME280;30230;47.520;19.016;2023-05-12T02:05:51;99119.00;;;11.40;100.00
42289;BME280;30230;47.520;19.016;2023-05-12T02:07:51;99125.88;;;11.36;100.00
42289;BME280;30230;47.520;19.016;2023-05-12T02:09:52;99124.81;;;11.37;100.00
42289;BME280;30230;47.520;19.016;2023-05-12T02:11:52;99118.41;;;11.31;100.00
42289;BME280;30230;47.520;19.016;2023-05-12T02:13:53;99127.53;;;11.43;100.00
42289;BME280;30230;47.520;19.016;2023-05-12T02:15:53;99126.47;;;11.44;100.00
42289;BME280;30230;47.520;19.016;2023-05-12T02:17:53;99126.47;;;11.44;100.00
42289;BME280;30230;47.520;19.016;2023-05-12T02:19:54;99133.53;;;11.52;100.00
42289;BME280;30230;47.520;19.016;2023-05-12T02:21:54;99138.94;;;11.59;100.00
42289;BME280;30230;47.520;19.016;2023-05-12T02:23:55;99133.53;;;11.59;100.00
42289;BME280;30230;47.520;19.016;2023-05-12T02:25:55;99130.00;;;11.52;100.00
42289;BME280;30230;47.520;19.016;2023-05-12T02:27:56;99135.22;;;11.40;100.00
42289;BME280;30230;47.520;19.016;2023-05-12T02:29:56;99123.56;;;11.46;100.00
42289;BME280;30230;47.520;19.016;2023-05-12T02:31:56;99133.31;;;11.47;100.00
42289;BME280;30230;47.520;19.016;2023-05-12T02:33:57;99125.88;;;11.36;100.00
42289;BME280;30230;47.520;19.016;2023-05-12T02:35:58;99128.97;;;11.46;100.00
42289;BME280;30230;47.520;19.016;2023-05-12T02:37:58;99122.94;;;11.44;100.00
42289;BME280;30230;47.520;19.016;2023-05-12T02:39:59;99128.97;;;11.46;100.00
42289;BME280;30230;47.520;19.016;2023-05-12T02:41:59;99130.44;;;11.42;100.00
42289;BME280;30230;47.520;19.016;2023-05-12T02:43:59;99135.03;;;11.35;100.00
42289;BME280;30230;47.520;19.016;2023-05-12T02:46:00;99129.03;;;11.33;100.00
42289;BME280;30230;47.520;19.016;2023-05-12T02:48:00;99132.34;;;11.35;100.00
42289;BME280;30230;47.520;19.016;2023-05-12T02:50:01;99132.75;;;11.32;100.00
42289;BME280;30230;47.520;19.016;2023-05-12T02:52:01;99142.28;;;11.41;100.00
42289;BME280;30230;47.520;19.016;2023-05-12T02:54:02;99135.03;;;11.35;100.00
42289;BME280;30230;47.520;19.016;2023-05-12T02:56:02;99138.56;;;11.35;100.00
42289;BME280;30230;47.520;19.016;2023-05-12T02:58:03;99130.69;;;11.34;100.00
42289;BME280;30230;47.520;19.016;2023-05-12T03:00:04;99137.94;;;11.40;100.00
42289;BME280;30230;47.520;19.016;2023-05-12T03:02:05;99141.06;;;11.43;100.00
42289;BME280;30230;47.520;19.016;2023-05-12T03:04:06;99137.13;;;11.33;100.00
42289;BME280;30230;47.520;19.016;2023-05-12T03:06:06;99141.06;;;11.43;100.00
42289;BME280;30230;47.520;19.016;2023-05-12T03:08:07;99145.63;;;11.43;100.00
42289;BME280;30230;47.520;19.016;2023-05-12T03:10:08;99143.75;;;11.37;100.00
42289;BME280;30230;47.520;19.016;2023-05-12T03:12:09;99145.25;;;11.33;100.00
42289;BME280;30230;47.520;19.016;2023-05-12T03:14:09;99136.50;;;11.31;100.00
42289;BME280;30230;47.520;19.016;2023-05-12T03:16:10;99140.66;;;11.27;100.00
42289;BME280;30230;47.520;19.016;2023-05-12T03:18:11;99138.16;;;11.32;100.00
42289;BME280;30230;47.520;19.016;2023-05-12T03:20:12;99124.25;;;11.28;100.00
42289;BME280;30230;47.520;19.016;2023-05-12T03:22:12;99122.38;;;11.29;100.00
42289;BME280;30230;47.520;19.016;2023-05-12T03:24:13;99129.81;;;11.40;100.00
42289;BME280;30230;47.520;19.016;2023-05-12T03:26:13;99137.53;;;11.36;100.00
42289;BME280;30230;47.520;19.016;2023-05-12T03:28:14;99133.78;;;11.31;100.00
42289;BME280;30230;47.520;19.016;2023-05-12T03:30:14;99133.16;;;11.35;100.00
42289;BME280;30230;47.520;19.016;2023-05-12T03:32:15;99142.31;;;11.34;100.00
42289;BME280;30230;47.520;19.016;2023-05-12T03:34:15;99135.44;;;11.38;100.00
42289;BME280;30230;47.520;19.016;2023-05-12T03:36:16;99146.69;;;11.35;100.00
42289;BME280;30230;47.520;19.016;2023-05-12T03:38:16;99130.28;;;11.10;100.00
42289;BME280;30230;47.520;19.016;2023-05-12T03:40:17;99139.81;;;11.26;100.00
42289;BME280;30230;47.520;19.016;2023-05-12T03:42:17;99136.09;;;11.27;100.00
42289;BME280;30230;47.520;19.016;2023-05-12T03:44:18;99128.44;;;11.17;100.00
42289;BME280;30230;47.520;19.016;2023-05-12T03:46:20;99138.81;;;11.27;100.00
42289;BME280;30230;47.520;19.016;2023-05-12T03:48:21;99144.00;;;11.29;100.00
42289;BME280;30230;47.520;19.016;2023-05-12T03:50:22;99148.34;;;11.30;100.00
42289;BME280;30230;47.520;19.016;2023-05-12T03:52:22;99154.81;;;11.29;100.00
42289;BME280;30230;47.520;19.016;2023-05-12T03:54:23;99148.34;;;11.36;100.00
42289;BME280;30230;47.520;19.016;2023-05-12T03:56:23;99141.91;;;11.31;100.00
42289;BME280;30230;47.520;19.016;2023-05-12T03:58:24;99145.88;;;11.21;100.00
42289;BME280;30230;47.520;19.016;2023-05-12T04:00:24;99141.53;;;11.27;100.00
42289;BME280;30230;47.520;19.016;2023-05-12T04:02:25;99147.13;;;11.26;100.00
42289;BME280;30230;47.520;19.016;2023-05-12T04:04:26;99152.31;;;11.34;100.00
42289;BME280;30230;47.520;19.016;2023-05-12T04:06:26;99157.06;;;11.32;100.00
42289;BME280;30230;47.520;19.016;2023-05-12T04:08:27;99153.13;;;11.34;100.00
42289;BME280;30230;47.520;19.016;2023-05-12T04:10:28;99161.25;;;11.21;100.00
42289;BME280;30230;47.520;19.016;2023-05-12T04:12:28;99160.22;;;11.29;100.00
42289;BME280;30230;47.520;19.016;2023-05-12T04:14:28;99163.97;;;11.28;100.00
42289;BME280;30230;47.520;19.016;2023-05-12T04:16:29;99162.72;;;11.30;100.00
42289;BME280;30230;47.520;19.016;2023-05-12T04:18:29;99162.50;;;11.25;100.00
42289;BME280;30230;47.520;19.016;2023-05-12T04:20:30;99166.06;;;11.32;100.00
42289;BME280;30230;47.520;19.016;2023-05-12T04:22:30;99167.69;;;11.27;100.00
42289;BME280;30230;47.520;19.016;2023-05-12T04:24:31;99162.31;;;11.13;100.00
42289;BME280;30230;47.520;19.016;2023-05-12T04:26:31;99170.84;;;11.17;100.00
42289;BME280;30230;47.520;19.016;2023-05-12T04:28:32;99172.50;;;11.25;100.00
42289;BME280;30230;47.520;19.016;2023-05-12T04:30:32;99177.28;;;11.23;100.00
42289;BME280;30230;47.520;19.016;2023-05-12T04:32:33;99164.41;;;11.18;100.00
42289;BME280;30230;47.520;19.016;2023-05-12T04:34:33;99172.09;;;11.28;100.00
42289;BME280;30230;47.520;19.016;2023-05-12T04:36:34;99164.38;;;11.31;100.00
42289;BME280;30230;47.520;19.016;2023-05-12T04:38:34;99171.66;;;11.31;100.00
42289;BME280;30230;47.520;19.016;2023-05-12T04:40:35;99165.00;;;11.33;100.00
42289;BME280;30230;47.520;19.016;2023-05-12T04:42:35;99162.53;;;11.18;100.00
42289;BME280;30230;47.520;19.016;2023-05-12T04:44:36;99174.56;;;11.36;100.00
42289;BME280;30230;47.520;19.016;2023-05-12T04:46:36;99171.66;;;11.31;100.00
42289;BME280;30230;47.520;19.016;2023-05-12T04:48:36;99170.38;;;11.40;100.00
42289;BME280;30230;47.520;19.016;2023-05-12T04:50:41;99171.00;;;11.42;100.00
42289;BME280;30230;47.520;19.016;2023-05-12T04:52:41;99154.38;;;11.32;100.00
42289;BME280;30230;47.520;19.016;2023-05-12T04:54:42;99149.41;;;11.29;100.00
42289;BME280;30230;47.520;19.016;2023-05-12T04:56:42;99170.19;;;11.35;100.00
42289;BME280;30230;47.520;19.016;2023-05-12T04:58:43;99164.16;;;11.39;100.00
42289;BME280;30230;47.520;19.016;2023-05-12T05:00:43;99170.59;;;11.45;100.00
42289;BME280;30230;47.520;19.016;2023-05-12T05:02:44;99165.59;;;11.42;100.00
42289;BME280;30230;47.520;19.016;2023-05-12T05:04:44;99166.44;;;11.36;100.00
42289;BME280;30230;47.520;19.016;2023-05-12T05:06:44;99171.44;;;11.39;100.00
42289;BME280;30230;47.520;19.016;2023-05-12T05:08:45;99169.53;;;11.46;100.00
42289;BME280;30230;47.520;19.016;2023-05-12T05:10:45;99171.63;;;11.44;100.00
42289;BME280;30230;47.520;19.016;2023-05-12T05:12:46;99172.25;;;11.46;100.00
42289;BME280;30230;47.520;19.016;2023-05-12T05:14:46;99173.69;;;11.42;100.00
42289;BME280;30230;47.520;19.016;2023-05-12T05:16:46;99176.78;;;11.52;100.00
42289;BME280;30230;47.520;19.016;2023-05-12T05:18:47;99169.72;;;11.51;100.00
42289;BME280;30230;47.520;19.016;2023-05-12T05:20:48;99168.50;;;11.47;100.00
42289;BME280;30230;47.520;19.016;2023-05-12T05:22:48;99175.16;;;11.44;100.00
42289;BME280;30230;47.520;19.016;2023-05-12T05:24:49;99172.47;;;11.38;100.00
42289;BME280;30230;47.520;19.016;2023-05-12T05:26:49;99178.09;;;11.43;100.00
42289;BME280;30230;47.520;19.016;2023-05-12T05:28:50;99179.50;;;11.52;100.00
42289;BME280;30230;47.520;19.016;2023-05-12T05:30:54;99174.34;;;11.44;100.00
42289;BME280;30230;47.520;19.016;2023-05-12T05:32:54;99166.03;;;11.39;100.00
42289;BME280;30230;47.520;19.016;2023-05-12T05:34:54;99177.28;;;11.29;100.00
42289;BME280;30230;47.520;19.016;2023-05-12T05:36:55;99183.09;;;11.33;100.00
42289;BME280;30230;47.520;19.016;2023-05-12T05:38:55;99173.50;;;11.37;100.00
42289;BME280;30230;47.520;19.016;2023-05-12T05:40:56;99179.34;;;11.34;100.00
42289;BME280;30230;47.520;19.016;2023-05-12T05:42:56;99182.66;;;11.42;100.00
42289;BME280;30230;47.520;19.016;2023-05-12T05:44:56;99183.50;;;11.43;100.00
42289;BME280;30230;47.520;19.016;2023-05-12T05:46:57;99172.25;;;11.46;100.00
42289;BME280;30230;47.520;19.016;2023-05-12T05:48:57;99155.63;;;11.42;100.00
42289;BME280;30230;47.520;19.016;2023-05-12T05:50:58;99172.41;;;11.58;100.00
42289;BME280;30230;47.520;19.016;2023-05-12T05:52:58;99162.66;;;11.50;100.00
42289;BME280;30230;47.520;19.016;2023-05-12T05:54:58;99182.66;;;11.49;100.00
42289;BME280;30230;47.520;19.016;2023-05-12T05:56:59;99182.22;;;11.52;100.00
42289;BME280;30230;47.520;19.016;2023-05-12T05:59:01;99185.09;;;11.57;100.00
42289;BME280;30230;47.520;19.016;2023-05-12T06:01:03;99187.81;;;11.64;100.00
42289;BME280;30230;47.520;19.016;2023-05-12T06:03:03;99168.94;;;11.44;100.00
42289;BME280;30230;47.520;19.016;2023-05-12T06:05:04;99177.47;;;11.41;100.00
42289;BME280;30230;47.520;19.016;2023-05-12T06:07:05;99174.72;;;11.54;100.00
42289;BME280;30230;47.520;19.016;2023-05-12T06:09:06;99185.50;;;11.67;100.00
42289;BME280;30230;47.520;19.016;2023-05-12T06:11:08;99189.00;;;11.81;100.00
42289;BME280;30230;47.520;19.016;2023-05-12T06:13:09;99185.06;;;11.77;100.00
42289;BME280;30230;47.520;19.016;2023-05-12T06:15:09;99204.41;;;11.81;100.00
42289;BME280;30230;47.520;19.016;2023-05-12T06:17:10;99199.84;;;11.74;100.00
42289;BME280;30230;47.520;19.016;2023-05-12T06:19:10;99202.56;;;11.74;100.00
42289;BME280;30230;47.520;19.016;2023-05-12T06:21:11;99201.34;;;11.64;100.00
42289;BME280;30230;47.520;19.016;2023-05-12T06:23:12;99197.78;;;11.70;100.00
42289;BME280;30230;47.520;19.016;2023-05-12T06:25:12;99201.50;;;11.76;100.00
42289;BME280;30230;47.520;19.016;2023-05-12T06:27:13;99203.41;;;11.68;100.00
42289;BME280;30230;47.520;19.016;2023-05-12T06:29:13;99200.53;;;11.63;100.00
42289;BME280;30230;47.520;19.016;2023-05-12T06:31:14;99196.53;;;11.66;100.00
42289;BME280;30230;47.520;19.016;2023-05-12T06:33:14;99210.88;;;11.73;100.00
42289;BME280;30230;47.520;19.016;2023-05-12T06:35:15;99184.69;;;11.60;100.00
42289;BME280;30230;47.520;19.016;2023-05-12T06:37:16;99195.69;;;11.85;100.00
42289;BME280;30230;47.520;19.016;2023-05-12T06:39:16;99190.06;;;11.87;100.00
42289;BME280;30230;47.520;19.016;2023-05-12T06:41:16;99191.72;;;11.88;100.00
42289;BME280;30230;47.520;19.016;2023-05-12T06:43:17;99194.22;;;11.89;100.00
42289;BME280;30230;47.520;19.016;2023-05-12T06:45:18;99204.22;;;11.89;100.00
42289;BME280;30230;47.520;19.016;2023-05-12T06:47:18;99200.06;;;11.80;100.00
42289;BME280;30230;47.520;19.016;2023-05-12T06:49:18;99197.13;;;11.81;100.00
42289;BME280;30230;47.520;19.016;2023-05-12T06:51:19;99197.13;;;11.88;100.00
42289;BME280;30230;47.520;19.016;2023-05-12T06:53:20;99181.53;;;11.77;100.00
42289;BME280;30230;47.520;19.016;2023-05-12T06:55:20;99201.31;;;11.84;100.00
42289;BME280;30230;47.520;19.016;2023-05-12T06:57:21;99200.88;;;11.87;100.00
42289;BME280;30230;47.520;19.016;2023-05-12T06:59:21;99195.91;;;11.84;100.00
42289;BME280;30230;47.520;19.016;2023-05-12T07:01:22;99201.06;;;11.92;100.00
42289;BME280;30230;47.520;19.016;2023-05-12T07:03:22;99192.94;;;11.92;100.00
42289;BME280;30230;47.520;19.016;2023-05-12T07:05:24;99199.16;;;11.99;100.00
42289;BME280;30230;47.520;19.016;2023-05-12T07:07:25;99194.16;;;12.03;100.00
42289;BME280;30230;47.520;19.016;2023-05-12T07:09:25;99192.53;;;11.95;100.00
42289;BME280;30230;47.520;19.016;2023-05-12T07:11:25;99187.97;;;11.89;100.00
42289;BME280;30230;47.520;19.016;2023-05-12T07:13:26;99181.28;;;11.91;100.00
42289;BME280;30230;47.520;19.016;2023-05-12T07:15:27;99199.41;;;11.91;100.00
42289;BME280;30230;47.520;19.016;2023-05-12T07:17:27;99201.63;;;12.07;100.00
42289;BME280;30230;47.520;19.016;2023-05-12T07:19:28;99200.38;;;12.10;100.00
42289;BME280;30230;47.520;19.016;2023-05-12T07:21:28;99201.59;;;12.14;100.00
42289;BME280;30230;47.520;19.016;2023-05-12T07:23:29;99203.47;;;12.13;100.00
42289;BME280;30230;47.520;19.016;2023-05-12T07:25:30;99204.13;;;12.15;100.00
42289;BME280;30230;47.520;19.016;2023-05-12T07:27:30;99188.97;;;12.01;100.00
42289;BME280;30230;47.520;19.016;2023-05-12T07:29:30;99197.00;;;12.14;100.00
42289;BME280;30230;47.520;19.016;2023-05-12T07:31:31;99196.81;;;12.09;100.00
42289;BME280;30230;47.520;19.016;2023-05-12T07:33:33;99191.03;;;11.99;100.00
42289;BME280;30230;47.520;19.016;2023-05-12T07:35:34;99199.38;;;11.97;100.00
42289;BME280;30230;47.520;19.016;2023-05-12T07:37:34;99196.03;;;12.02;100.00
42289;BME280;30230;47.520;19.016;2023-05-12T07:39:35;99188.31;;;11.99;100.00
42289;BME280;30230;47.520;19.016;2023-05-12T07:41:35;99198.25;;;12.18;100.00
42289;BME280;30230;47.520;19.016;2023-05-12T07:43:35;99201.34;;;12.60;100.00
42289;BME280;30230;47.520;19.016;2023-05-12T07:45:36;99194.31;;;12.84;100.00
42289;BME280;30230;47.520;19.016;2023-05-12T07:47:36;99191.38;;;12.86;100.00
42289;BME280;30230;47.520;19.016;2023-05-12T07:49:37;99189.16;;;12.76;100.00
42289;BME280;30230;47.520;19.016;2023-05-12T07:51:37;99194.84;;;12.68;100.00
42289;BME280;30230;47.520;19.016;2023-05-12T07:53:38;99189.31;;;12.56;100.00
42289;BME280;30230;47.520;19.016;2023-05-12T07:55:40;99201.00;;;12.50;100.00
42289;BME280;30230;47.520;19.016;2023-05-12T07:57:42;99190.19;;;12.43;100.00
42289;BME280;30230;47.520;19.016;2023-05-12T07:59:42;99204.41;;;12.39;100.00
42289;BME280;30230;47.520;19.016;2023-05-12T08:01:43;99203.97;;;12.42;100.00
42289;BME280;30230;47.520;19.016;2023-05-12T08:03:43;99185.72;;;12.31;100.00
42289;BME280;30230;47.520;19.016;2023-05-12T08:05:44;99202.69;;;12.44;100.00
42289;BME280;30230;47.520;19.016;2023-05-12T08:07:45;99185.25;;;12.34;100.00
42289;BME280;30230;47.520;19.016;2023-05-12T08:09:46;99205.69;;;12.36;100.00
42289;BME280;30230;47.520;19.016;2023-05-12T08:11:47;99206.06;;;12.40;100.00
42289;BME280;30230;47.520;19.016;2023-05-12T08:13:49;99189.78;;;12.40;100.00
42289;BME280;30230;47.520;19.016;2023-05-12T08:15:49;99209.94;;;12.57;100.00
42289;BME280;30230;47.520;19.016;2023-05-12T08:17:50;99209.53;;;12.54;100.00
42289;BME280;30230;47.520;19.016;2023-05-12T08:19:51;99201.50;;;12.34;100.00
42289;BME280;30230;47.520;19.016;2023-05-12T08:21:51;99192.31;;;12.35;100.00
42289;BME280;30230;47.520;19.016;2023-05-12T08:23:53;99221.41;;;12.52;100.00
42289;BME280;30230;47.520;19.016;2023-05-12T08:25:53;99189.63;;;12.35;100.00
42289;BME280;30230;47.520;19.016;2023-05-12T08:27:53;99189.25;;;12.31;100.00
42289;BME280;30230;47.520;19.016;2023-05-12T08:29:54;99214.81;;;12.35;100.00
42289;BME280;30230;47.520;19.016;2023-05-12T08:31:54;99222.63;;;12.25;100.00
42289;BME280;30230;47.520;19.016;2023-05-12T08:33:56;99202.38;;;12.28;100.00
42289;BME280;30230;47.520;19.016;2023-05-12T08:35:56;99213.56;;;12.38;100.00
42289;BME280;30230;47.520;19.016;2023-05-12T08:37:57;99211.03;;;12.43;100.00
42289;BME280;30230;47.520;19.016;2023-05-12T08:39:58;99191.31;;;12.36;100.00
42289;BME280;30230;47.520;19.016;2023-05-12T08:44:21;99218.94;;;12.51;100.00
42289;BME280;30230;47.520;19.016;2023-05-12T08:46:22;99212.28;;;12.47;100.00
42289;BME280;30230;47.520;19.016;2023-05-12T08:48:26;99218.56;;;12.41;100.00
42289;BME280;30230;47.520;19.016;2023-05-12T08:50:29;99199.63;;;12.34;100.00
42289;BME280;30230;47.520;19.016;2023-05-12T08:52:33;99210.81;;;12.44;100.00
42289;BME280;30230;47.520;19.016;2023-05-12T08:54:34;99224.78;;;12.48;100.00
42289;BME280;30230;47.520;19.016;2023-05-12T08:56:36;99228.72;;;12.52;100.00
42289;BME280;30230;47.520;19.016;2023-05-12T08:58:37;99226.00;;;12.52;100.00
42289;BME280;30230;47.520;19.016;2023-05-12T09:00:38;99227.63;;;12.60;100.00
42289;BME280;30230;47.520;19.016;2023-05-12T09:02:39;99220.13;;;12.62;100.00
42289;BME280;30230;47.520;19.016;2023-05-12T09:04:41;99215.16;;;12.52;100.00
42289;BME280;30230;47.520;19.016;2023-05-12T09:06:42;99225.91;;;12.65;100.00
42289;BME280;30230;47.520;19.016;2023-05-12T09:08:44;99228.91;;;12.57;100.00
42289;BME280;30230;47.520;19.016;2023-05-12T09:10:44;99157.53;;;12.00;100.00
42289;BME280;30230;47.520;19.016;2023-05-12T09:12:46;99217.56;;;12.29;100.00
42289;BME280;30230;47.520;19.016;2023-05-12T09:14:59;99226.97;;;12.26;100.00
42289;BME280;30230;47.520;19.016;2023-05-12T09:17:03;99224.28;;;12.19;100.00
42289;BME280;30230;47.520;19.016;2023-05-12T09:19:04;99234.91;;;12.21;100.00
42289;BME280;30230;47.520;19.016;2023-05-12T09:21:05;99236.59;;;12.15;100.00
42289;BME280;30230;47.520;19.016;2023-05-12T09:23:16;99237.84;;;12.13;100.00
42289;BME280;30230;47.520;19.016;2023-05-12T09:25:18;99224.97;;;12.02;100.00
42289;BME280;30230;47.520;19.016;2023-05-12T09:27:25;99243.91;;;12.08;100.00
42289;BME280;30230;47.520;19.016;2023-05-12T09:29:26;99244.16;;;12.00;100.00
42289;BME280;30230;47.520;19.016;2023-05-12T09:31:27;99225.66;;;11.90;100.00
42289;BME280;30230;47.520;19.016;2023-05-12T09:33:33;99248.53;;;11.88;100.00
42289;BME280;30230;47.520;19.016;2023-05-12T09:35:38;99251.25;;;11.88;100.00
42289;BME280;30230;47.520;19.016;2023-05-12T09:37:38;99262.91;;;11.88;100.00
42289;BME280;30230;47.520;19.016;2023-05-12T09:39:39;99253.75;;;11.76;100.00
42289;BME280;30230;47.520;19.016;2023-05-12T09:41:43;99232.16;;;11.56;100.00
42289;BME280;30230;47.520;19.016;2023-05-12T09:43:44;99267.06;;;11.78;100.00
42289;BME280;30230;47.520;19.016;2023-05-12T09:45:45;99262.28;;;11.80;100.00
42289;BME280;30230;47.520;19.016;2023-05-12T09:47:46;99278.13;;;11.76;100.00
42289;BME280;30230;47.520;19.016;2023-05-12T09:49:50;99264.59;;;11.83;100.00
42289;BME280;30230;47.520;19.016;2023-05-12T09:51:57;99248.38;;;11.56;100.00
42289;BME280;30230;47.520;19.016;2023-05-12T09:53:58;99267.09;;;11.64;100.00
42289;BME280;30230;47.520;19.016;2023-05-12T09:55:59;99271.25;;;11.67;100.00
42289;BME280;30230;47.520;19.016;2023-05-12T09:58:01;99270.88;;;11.50;100.00
42289;BME280;30230;47.520;19.016;2023-05-12T10:00:07;99270.66;;;11.52;100.00
42289;BME280;30230;47.520;19.016;2023-05-12T10:02:08;99276.06;;;11.58;100.00
42289;BME280;30230;47.520;19.016;2023-05-12T10:04:08;99273.78;;;11.55;100.00
42289;BME280;30230;47.520;19.016;2023-05-12T10:06:14;99267.09;;;11.58;100.00
42289;BME280;30230;47.520;19.016;2023-05-12T10:08:36;99277.31;;;11.56;100.00
42289;BME280;30230;47.520;19.016;2023-05-12T10:10:37;99266.91;;;11.46;100.00
42289;BME280;30230;47.520;19.016;2023-05-12T10:12:39;99279.63;;;11.39;100.00
42289;BME280;30230;47.520;19.016;2023-05-12T10:14:41;99266.72;;;11.34;100.00
42289;BME280;30230;47.520;19.016;2023-05-12T10:16:44;99279.19;;;11.55;100.00
42289;BME280;30230;47.520;19.016;2023-05-12T10:18:45;99271.91;;;11.56;100.00
42289;BME280;30230;47.520;19.016;2023-05-12T10:20:47;99286.66;;;11.60;100.00
42289;BME280;30230;47.520;19.016;2023-05-12T10:22:48;99295.81;;;11.52;100.00
42289;BME280;30230;47.520;19.016;2023-05-12T10:24:49;99281.47;;;11.65;100.00
42289;BME280;30230;47.520;19.016;2023-05-12T10:26:52;99288.13;;;11.69;100.00
42289;BME280;30230;47.520;19.016;2023-05-12T10:28:54;99278.75;;;11.65;100.00